Time;durP1;ratioP1;P1;durP2;ratioP2;P2;SDS_P1;SDS_P2;PMS_P1;PMS_P2;Temp;Humidity;BMP_temperature;BMP_pressure;BME280_temperature;BME280_humidity;BME280_pressure;Samples;Min_cycle;Max_cycle;Signal;HPM_P1;HPM_P2
2022/04/24 00:00:00;;;;;;;2.78;2.30;;;17.30;57.50;;;;;;5095938;28;20451;-76
2022/04/24 00:02:26;;;;;;;2.22;1.90;;;17.20;57.50;;;;;;5085904;28;20024;-76
2022/04/24 00:04:51;;;;;;;3.53;2.47;;;17.20;57.50;;;;;;5096415;28;20024;-76
2022/04/24 00:07:17;;;;;;;3.13;2.40;;;17.20;57.60;;;;;;5088178;28;20031;-78
2022/04/24 00:09:43;;;;;;;3.28;2.35;;;17.10;57.50;;;;;;5089047;28;20074;-77
2022/04/24 00:12:15;;;;;;;2.33;2.13;;;17.10;57.50;;;;;;5092486;28;20162;-76
2022/04/24 00:14:45;;;;;;;2.45;2.17;;;17.10;57.60;;;;;;5096581;28;20032;-76
2022/04/24 00:17:11;;;;;;;3.42;2.50;;;17.10;57.60;;;;;;5087088;28;20111;-76
2022/04/24 00:19:37;;;;;;;3.03;2.38;;;17.00;57.60;;;;;;5100285;28;20020;-76
2022/04/24 00:22:03;;;;;;;3.28;2.53;;;17.00;57.60;;;;;;5079393;28;20576;-76
2022/04/24 00:24:29;;;;;;;3.70;2.70;;;17.00;57.70;;;;;;5086661;28;20536;-77
2022/04/24 00:26:55;;;;;;;2.80;2.22;;;17.00;57.70;;;;;;5073349;28;20111;-77
2022/04/24 00:29:21;;;;;;;2.85;2.40;;;16.90;57.70;;;;;;5072023;28;21530;-76
2022/04/24 00:31:47;;;;;;;2.75;2.33;;;16.90;57.70;;;;;;5091088;28;20028;-76
2022/04/24 00:34:12;;;;;;;3.10;2.47;;;16.90;57.70;;;;;;5069396;28;20040;-77
2022/04/24 00:36:38;;;;;;;2.83;2.33;;;16.90;57.80;;;;;;5077001;28;20726;-77
2022/04/24 00:39:05;;;;;;;3.15;2.50;;;16.80;57.70;;;;;;5067752;28;20024;-77
2022/04/24 00:41:30;;;;;;;2.55;2.22;;;16.80;57.70;;;;;;5065829;28;20123;-76
2022/04/24 00:43:56;;;;;;;2.95;2.40;;;16.80;57.70;;;;;;5088334;28;20104;-76
2022/04/24 00:47:02;;;;;;;3.63;2.80;;;16.80;57.80;;;;;;5085564;28;20387;-78
2022/04/24 00:49:29;;;;;;;3.15;2.50;;;16.70;57.80;;;;;;5086123;28;20123;-76
2022/04/24 00:51:55;;;;;;;2.65;2.40;;;16.70;57.80;;;;;;5070910;28;20027;-77
2022/04/24 00:54:21;;;;;;;3.30;2.58;;;16.60;57.80;;;;;;5054684;28;20123;-76
2022/04/24 00:56:47;;;;;;;3.08;2.50;;;16.60;57.80;;;;;;5079022;28;20350;-76
2022/04/24 00:59:14;;;;;;;3.03;2.50;;;16.60;57.90;;;;;;5084891;28;20043;-76
2022/04/24 01:01:41;;;;;;;3.22;2.60;;;16.60;57.90;;;;;;5089332;28;20122;-77
2022/04/24 01:04:09;;;;;;;3.00;2.45;;;16.50;57.80;;;;;;5093762;28;20967;-77
2022/04/24 01:06:39;;;;;;;3.35;2.72;;;16.60;57.90;;;;;;5096642;28;20028;-76
2022/04/24 01:09:13;;;;;;;4.03;2.95;;;16.50;57.90;;;;;;5080595;28;20460;-77
2022/04/24 01:11:40;;;;;;;3.25;2.60;;;16.40;57.80;;;;;;5085220;28;20032;-77
2022/04/24 01:14:07;;;;;;;3.45;2.80;;;16.50;57.90;;;;;;5094211;28;20086;-77
2022/04/24 01:16:33;;;;;;;3.47;2.83;;;16.40;57.90;;;;;;5095581;28;20027;-76
2022/04/24 01:18:59;;;;;;;3.78;2.80;;;16.40;57.90;;;;;;5094254;28;20032;-76
2022/04/24 01:21:25;;;;;;;4.38;3.05;;;16.40;58.00;;;;;;5096683;28;20047;-77
2022/04/24 01:23:51;;;;;;;4.60;3.15;;;16.40;58.00;;;;;;5066748;28;20100;-76
2022/04/24 01:26:17;;;;;;;4.28;2.95;;;16.30;58.00;;;;;;5080328;28;20024;-76
2022/04/24 01:28:42;;;;;;;3.47;2.83;;;16.30;58.00;;;;;;5080094;28;20024;-78
2022/04/24 01:31:08;;;;;;;3.63;2.90;;;16.30;58.00;;;;;;5080243;28;20070;-76
2022/04/24 01:33:34;;;;;;;4.10;3.15;;;16.30;58.00;;;;;;5093581;28;20027;-75
2022/04/24 01:36:00;;;;;;;3.58;2.78;;;16.20;58.00;;;;;;5084484;28;20028;-76
2022/04/24 01:38:28;;;;;;;3.97;3.15;;;16.20;58.10;;;;;;5096050;28;20032;-77
2022/04/24 01:40:54;;;;;;;3.70;3.20;;;16.20;58.10;;;;;;5085379;28;20119;-77
2022/04/24 01:43:20;;;;;;;4.28;3.40;;;16.20;58.10;;;;;;5083936;28;20540;-75
2022/04/24 01:45:46;;;;;;;3.92;2.85;;;16.10;58.10;;;;;;5075634;28;20028;-78
2022/04/24 01:48:11;;;;;;;4.65;3.35;;;16.10;58.20;;;;;;5063791;28;20028;-75
2022/04/24 01:50:37;;;;;;;4.13;3.45;;;16.10;58.20;;;;;;5088080;28;20037;-75
2022/04/24 01:53:03;;;;;;;4.32;3.25;;;16.10;58.20;;;;;;5053682;28;20028;-76
2022/04/24 01:55:29;;;;;;;4.43;3.30;;;16.10;58.20;;;;;;5096373;28;20106;-76
2022/04/24 01:57:54;;;;;;;4.47;3.60;;;16.00;58.20;;;;;;5067845;28;20039;-75
2022/04/24 02:00:20;;;;;;;3.97;3.10;;;16.00;58.30;;;;;;5074990;28;20032;-76
2022/04/24 02:02:47;;;;;;;4.18;3.28;;;16.00;58.30;;;;;;5067176;28;20033;-76
2022/04/24 02:05:14;;;;;;;4.10;3.33;;;16.00;58.30;;;;;;5088820;28;20066;-76
2022/04/24 02:07:40;;;;;;;4.63;3.50;;;15.90;58.30;;;;;;5078765;28;20592;-76
2022/04/24 02:10:06;;;;;;;3.95;3.17;;;15.90;58.40;;;;;;5076503;28;20040;-75
2022/04/24 02:12:31;;;;;;;4.38;3.28;;;15.90;58.40;;;;;;5053400;28;20044;-75
2022/04/24 02:14:57;;;;;;;4.20;3.35;;;15.80;58.40;;;;;;5051883;28;20592;-74
2022/04/24 02:17:23;;;;;;;3.90;3.13;;;15.80;58.40;;;;;;5065079;28;20119;-76
2022/04/24 02:19:49;;;;;;;4.28;3.38;;;15.80;58.40;;;;;;5067730;28;20078;-75
2022/04/24 02:22:15;;;;;;;4.15;3.50;;;15.70;58.40;;;;;;5081935;28;20057;-76
2022/04/24 02:24:41;;;;;;;4.50;3.45;;;15.70;58.40;;;;;;5095685;28;20024;-76
2022/04/24 02:27:06;;;;;;;4.20;3.53;;;15.70;58.40;;;;;;5082707;28;20566;-76
2022/04/24 02:29:33;;;;;;;4.88;3.28;;;15.70;58.40;;;;;;5100460;28;20032;-76
2022/04/24 02:31:59;;;;;;;4.18;3.40;;;15.70;58.50;;;;;;5092679;28;20027;-75
2022/04/24 02:34:28;;;;;;;4.57;3.30;;;15.60;58.40;;;;;;5067731;28;20096;-78
2022/04/24 02:36:54;;;;;;;4.68;3.50;;;15.60;58.50;;;;;;5099119;28;20380;-75
2022/04/24 02:39:20;;;;;;;5.35;3.67;;;15.60;58.60;;;;;;5073857;28;20017;-75
2022/04/24 02:41:45;;;;;;;4.18;3.38;;;15.60;58.60;;;;;;5084777;28;20093;-74
2022/04/24 02:44:11;;;;;;;4.57;3.50;;;15.50;58.70;;;;;;5085481;28;20032;-76
2022/04/24 02:46:37;;;;;;;5.90;3.97;;;15.50;58.70;;;;;;5086513;28;20453;-75
2022/04/24 02:49:03;;;;;;;4.45;3.65;;;15.50;58.60;;;;;;5085066;28;20081;-74
2022/04/24 02:51:28;;;;;;;5.03;3.70;;;15.50;58.70;;;;;;5086211;28;20028;-76
2022/04/24 02:53:54;;;;;;;4.90;3.85;;;15.40;58.80;;;;;;5071946;28;20109;-76
2022/04/24 02:56:20;;;;;;;4.60;3.58;;;15.50;58.90;;;;;;5083933;28;20032;-75
2022/04/24 02:58:46;;;;;;;5.07;3.72;;;15.40;58.80;;;;;;5077013;28;20039;-77
2022/04/24 03:01:12;;;;;;;4.60;3.70;;;15.40;58.80;;;;;;5086705;28;20043;-75
2022/04/24 03:03:38;;;;;;;4.10;3.25;;;15.40;58.90;;;;;;5079763;28;20063;-76
2022/04/24 03:06:04;;;;;;;5.15;3.72;;;15.30;58.90;;;;;;5099308;28;20051;-76
2022/04/24 03:08:31;;;;;;;4.75;3.65;;;15.30;58.90;;;;;;5082316;28;20056;-76
2022/04/24 03:10:56;;;;;;;5.13;3.80;;;15.30;59.00;;;;;;5090880;28;20020;-76
2022/04/24 03:13:22;;;;;;;4.40;3.40;;;15.30;59.00;;;;;;5073135;28;20086;-76
2022/04/24 03:15:48;;;;;;;4.22;3.40;;;15.20;58.90;;;;;;5099572;28;20468;-76
2022/04/24 03:18:13;;;;;;;4.50;3.50;;;15.20;59.00;;;;;;5075871;28;20036;-76
2022/04/24 03:20:39;;;;;;;4.00;3.50;;;15.20;59.10;;;;;;5074577;28;20044;-75
2022/04/24 03:23:05;;;;;;;4.57;3.70;;;15.20;59.00;;;;;;5094421;28;20476;-76
2022/04/24 03:25:31;;;;;;;4.90;3.60;;;15.10;59.00;;;;;;5092238;28;20024;-75
2022/04/24 03:27:57;;;;;;;4.25;3.38;;;15.10;59.10;;;;;;5087559;28;20035;-75
2022/04/24 03:30:23;;;;;;;5.03;3.78;;;15.10;59.10;;;;;;5070616;28;20442;-75
2022/04/24 03:32:49;;;;;;;4.57;3.50;;;15.10;59.10;;;;;;5097689;28;20470;-75
2022/04/24 03:35:15;;;;;;;4.53;3.30;;;15.00;59.10;;;;;;5054603;28;20110;-75
2022/04/24 03:37:42;;;;;;;4.03;3.00;;;15.00;59.10;;;;;;5085382;28;20122;-75
2022/04/24 03:40:08;;;;;;;5.20;3.33;;;15.00;59.00;;;;;;5084358;28;21624;-75
2022/04/24 03:42:35;;;;;;;4.88;3.58;;;15.00;59.10;;;;;;5071232;28;20040;-76
2022/04/24 03:45:01;;;;;;;4.45;3.30;;;14.90;59.60;;;;;;5093626;28;20513;-75
2022/04/24 03:47:27;;;;;;;5.07;3.40;;;14.90;59.00;;;;;;5082114;28;20475;-76
2022/04/24 03:49:53;;;;;;;4.53;3.45;;;14.90;59.00;;;;;;5081334;28;20074;-75
2022/04/24 03:52:19;;;;;;;4.20;3.20;;;14.90;59.00;;;;;;5099454;28;20067;-75
2022/04/24 03:54:45;;;;;;;4.55;3.33;;;14.80;59.00;;;;;;5098320;28;20055;-74
2022/04/24 03:57:11;;;;;;;3.97;3.00;;;14.80;59.00;;;;;;5070138;28;20036;-76
2022/04/24 03:59:37;;;;;;;5.25;3.53;;;14.80;59.10;;;;;;5095716;28;20027;-74
2022/04/24 04:02:03;;;;;;;4.25;3.28;;;14.70;59.00;;;;;;5088977;28;20077;-75
2022/04/24 04:04:29;;;;;;;4.35;3.35;;;14.70;58.90;;;;;;5068654;28;20123;-76
2022/04/24 04:06:55;;;;;;;3.45;2.65;;;14.70;59.00;;;;;;5088666;28;20541;-76
2022/04/24 04:09:21;;;;;;;4.03;3.30;;;14.70;59.00;;;;;;5098152;28;20058;-77
2022/04/24 04:11:47;;;;;;;4.32;3.15;;;14.70;59.00;;;;;;5069822;28;20035;-76
2022/04/24 04:14:13;;;;;;;4.22;2.95;;;14.60;58.90;;;;;;5069770;28;20114;-75
2022/04/24 04:16:38;;;;;;;5.28;3.08;;;14.60;58.90;;;;;;5072716;28;20032;-76
2022/04/24 04:19:04;;;;;;;4.20;3.03;;;14.60;58.90;;;;;;5080467;28;20542;-76
2022/04/24 04:21:30;;;;;;;3.75;2.85;;;14.60;58.90;;;;;;5096992;28;20503;-76
2022/04/24 04:23:56;;;;;;;3.50;2.55;;;14.50;58.90;;;;;;5090801;28;20035;-76
2022/04/24 04:26:21;;;;;;;3.65;2.85;;;14.50;58.90;;;;;;5076478;28;20440;-74
2022/04/24 04:28:48;;;;;;;3.70;2.70;;;14.50;58.90;;;;;;5074388;28;20032;-75
2022/04/24 04:31:14;;;;;;;3.90;2.88;;;14.50;58.90;;;;;;5088017;28;20055;-76
2022/04/24 04:33:41;;;;;;;4.65;2.92;;;14.40;58.90;;;;;;5068512;28;20054;-76
2022/04/24 04:36:07;;;;;;;4.30;2.60;;;14.40;58.90;;;;;;5073630;28;20032;-76
2022/04/24 04:38:32;;;;;;;3.50;2.70;;;14.40;58.90;;;;;;5071997;28;20040;-75
2022/04/24 04:40:58;;;;;;;4.05;3.00;;;14.40;58.90;;;;;;5088239;28;20448;-76
2022/04/24 04:43:28;;;;;;;3.90;2.90;;;14.40;58.90;;;;;;5095944;28;20352;-75
2022/04/24 04:45:53;;;;;;;3.45;2.75;;;14.30;58.90;;;;;;5087421;28;20062;-75
2022/04/24 04:48:19;;;;;;;3.70;2.80;;;14.30;58.90;;;;;;5095746;28;20035;-76
2022/04/24 04:50:45;;;;;;;3.78;2.70;;;14.30;59.00;;;;;;5087292;28;20036;-75
2022/04/24 04:53:11;;;;;;;4.18;3.03;;;14.30;58.90;;;;;;5076776;28;20031;-75
2022/04/24 04:55:37;;;;;;;4.65;3.05;;;14.20;58.90;;;;;;5065204;28;20055;-75
2022/04/24 04:58:03;;;;;;;3.20;2.58;;;14.20;58.90;;;;;;5098727;28;20020;-75
2022/04/24 05:00:29;;;;;;;4.10;2.95;;;14.20;58.90;;;;;;5070407;28;20024;-74
2022/04/24 05:02:55;;;;;;;5.68;3.03;;;14.20;58.90;;;;;;5080182;28;20120;-75
2022/04/24 05:05:20;;;;;;;3.92;2.83;;;14.10;58.90;;;;;;5078756;28;20115;-75
2022/04/24 05:07:47;;;;;;;4.97;3.00;;;14.20;59.00;;;;;;5095927;28;20465;-75
2022/04/24 05:10:13;;;;;;;3.65;2.92;;;14.10;59.00;;;;;;5086728;28;20027;-76
2022/04/24 05:12:38;;;;;;;3.80;2.88;;;14.10;59.00;;;;;;5090340;28;20593;-75
2022/04/24 05:15:06;;;;;;;4.22;2.78;;;14.10;59.00;;;;;;5083513;28;20025;-75
2022/04/24 05:17:36;;;;;;;4.20;3.25;;;14.10;59.00;;;;;;5094649;28;20028;-76
2022/04/24 05:20:07;;;;;;;3.97;2.97;;;14.00;59.00;;;;;;5097416;28;20027;-76
2022/04/24 05:22:33;;;;;;;4.40;3.00;;;14.00;59.00;;;;;;5089896;28;20035;-76
2022/04/24 05:24:59;;;;;;;3.78;2.80;;;14.00;59.00;;;;;;5081871;28;20077;-76
2022/04/24 05:27:25;;;;;;;3.75;2.80;;;14.00;59.00;;;;;;5074115;28;20040;-75
2022/04/24 05:29:50;;;;;;;4.57;2.92;;;14.00;59.00;;;;;;5072758;28;20039;-74
2022/04/24 05:32:16;;;;;;;4.18;2.72;;;13.90;59.00;;;;;;5040107;28;20047;-76
2022/04/24 05:34:43;;;;;;;3.58;2.65;;;13.90;58.90;;;;;;5087779;28;20051;-76
2022/04/24 05:37:09;;;;;;;3.28;2.72;;;13.90;59.00;;;;;;5073191;28;20028;-76
2022/04/24 05:39:35;;;;;;;3.80;2.95;;;13.90;59.00;;;;;;5095941;28;20055;-75
2022/04/24 05:42:02;;;;;;;4.57;3.03;;;13.90;59.00;;;;;;5100261;28;20163;-77
2022/04/24 05:44:27;;;;;;;3.50;2.67;;;13.90;59.00;;;;;;5098235;28;20055;-76
2022/04/24 05:46:53;;;;;;;4.28;2.88;;;13.90;59.00;;;;;;5092485;28;20032;-77
2022/04/24 05:49:19;;;;;;;3.58;2.50;;;13.80;59.00;;;;;;5088978;28;20035;-76
2022/04/24 05:51:45;;;;;;;4.18;2.85;;;13.80;59.00;;;;;;5092163;28;20056;-76
2022/04/24 05:54:11;;;;;;;3.22;2.53;;;13.80;59.00;;;;;;5081951;28;20101;-76
2022/04/24 05:56:38;;;;;;;4.00;2.90;;;13.80;59.10;;;;;;5073776;28;20028;-76
2022/04/24 05:59:04;;;;;;;3.75;2.70;;;13.80;59.10;;;;;;5100981;28;20042;-76
2022/04/24 06:01:30;;;;;;;3.20;2.60;;;13.80;59.10;;;;;;5084939;28;20048;-75
2022/04/24 06:03:56;;;;;;;4.18;2.92;;;13.80;59.10;;;;;;5083834;28;20036;-76
2022/04/24 06:06:21;;;;;;;3.80;2.85;;;13.80;59.10;;;;;;5086406;28;20035;-77
2022/04/24 06:08:47;;;;;;;3.97;2.95;;;13.70;59.10;;;;;;5088610;28;20426;-77
2022/04/24 06:11:13;;;;;;;3.78;2.92;;;13.70;59.10;;;;;;5061178;28;20039;-75
2022/04/24 06:13:42;;;;;;;3.38;2.63;;;13.70;59.10;;;;;;5067038;28;20055;-75
2022/04/24 06:16:08;;;;;;;4.22;2.78;;;13.70;59.10;;;;;;5086661;28;20108;-76
2022/04/24 06:18:33;;;;;;;3.22;2.58;;;13.70;59.10;;;;;;5059353;28;20119;-76
2022/04/24 06:20:59;;;;;;;3.15;2.55;;;13.70;59.10;;;;;;5099913;28;20138;-76
2022/04/24 06:23:27;;;;;;;2.97;2.38;;;13.70;59.20;;;;;;5075552;28;20778;-76
2022/04/24 06:25:53;;;;;;;3.72;2.60;;;13.70;59.20;;;;;;5074888;28;20131;-75
2022/04/24 06:28:19;;;;;;;3.42;2.55;;;13.70;59.20;;;;;;5072891;28;20043;-75
2022/04/24 06:30:45;;;;;;;3.65;2.60;;;13.70;59.20;;;;;;5080444;28;20036;-76
2022/04/24 06:33:12;;;;;;;4.35;3.05;;;13.70;59.20;;;;;;5099252;28;20028;-75
2022/04/24 06:35:38;;;;;;;3.75;2.80;;;13.70;59.20;;;;;;5093788;28;20056;-76
2022/04/24 06:38:04;;;;;;;3.20;2.50;;;13.60;59.10;;;;;;5097109;28;20031;-76
2022/04/24 06:40:31;;;;;;;3.25;2.55;;;13.70;59.20;;;;;;5073818;28;20036;-76
2022/04/24 06:42:59;;;;;;;3.22;2.78;;;13.70;59.20;;;;;;5104649;28;20516;-75
2022/04/24 06:45:31;;;;;;;3.53;2.50;;;13.60;59.20;;;;;;5089762;28;20903;-76
2022/04/24 06:47:59;;;;;;;3.60;2.80;;;13.60;59.20;;;;;;5089654;28;20116;-77
2022/04/24 06:50:26;;;;;;;3.50;2.70;;;13.60;59.20;;;;;;5074489;28;20032;-74
2022/04/24 06:53:21;;;;;;;3.28;2.58;;;13.70;59.30;;;;;;5098335;28;20032;-75
2022/04/24 06:55:49;;;;;;;3.30;2.50;;;13.60;59.40;;;;;;5078458;28;20492;-78
2022/04/24 06:58:16;;;;;;;3.53;2.70;;;13.70;59.30;;;;;;5091225;28;20083;-76
2022/04/24 07:00:43;;;;;;;3.60;2.70;;;13.60;59.20;;;;;;5073573;28;20043;-75
2022/04/24 07:03:13;;;;;;;2.75;2.30;;;13.60;59.30;;;;;;5099036;28;20036;-77
2022/04/24 07:05:40;;;;;;;3.58;2.65;;;13.60;59.30;;;;;;5070609;28;20052;-76
2022/04/24 07:08:06;;;;;;;3.50;2.65;;;13.70;59.30;;;;;;5075290;28;20016;-74
2022/04/24 07:10:32;;;;;;;4.10;2.80;;;13.70;59.40;;;;;;5082821;28;20020;-76
2022/04/24 07:12:58;;;;;;;3.67;2.85;;;13.70;59.40;;;;;;5082781;28;20104;-75
2022/04/24 07:15:28;;;;;;;3.85;2.70;;;13.70;59.30;;;;;;5076936;28;20123;-76
2022/04/24 07:17:56;;;;;;;4.18;3.13;;;13.70;59.40;;;;;;5088791;28;20038;-76
2022/04/24 07:20:22;;;;;;;3.75;3.00;;;13.70;59.40;;;;;;5065511;28;20056;-76
2022/04/24 07:22:53;;;;;;;2.42;2.22;;;13.70;59.40;;;;;;5082810;28;20051;-76
2022/04/24 07:25:23;;;;;;;3.60;2.65;;;13.70;59.40;;;;;;5092813;28;20032;-76
2022/04/24 07:27:50;;;;;;;4.53;3.00;;;13.70;59.30;;;;;;5086521;28;20020;-75
2022/04/24 07:30:17;;;;;;;3.25;2.60;;;13.70;59.40;;;;;;5092837;28;20020;-75
2022/04/24 07:32:51;;;;;;;3.50;2.55;;;13.70;59.40;;;;;;5093149;28;20094;-75
2022/04/24 07:35:19;;;;;;;3.65;2.78;;;13.70;59.40;;;;;;5080809;28;20025;-75
2022/04/24 07:37:45;;;;;;;3.40;2.70;;;13.70;59.40;;;;;;5084011;28;20020;-76
2022/04/24 07:40:14;;;;;;;3.15;2.65;;;13.80;59.50;;;;;;5067104;28;20040;-76
2022/04/24 07:42:56;;;;;;;2.92;2.50;;;13.80;59.50;;;;;;5099139;28;20055;-75
2022/04/24 07:45:28;;;;;;;4.00;2.67;;;13.80;59.50;;;;;;5097781;28;20111;-75
2022/04/24 07:47:55;;;;;;;3.30;2.70;;;13.80;59.50;;;;;;5075275;28;20028;-75
2022/04/24 07:50:23;;;;;;;3.50;2.90;;;13.80;59.50;;;;;;5099039;28;20422;-76
2022/04/24 07:52:50;;;;;;;3.38;2.60;;;13.80;59.50;;;;;;5099179;28;20105;-75
2022/04/24 07:55:18;;;;;;;3.38;2.67;;;13.80;59.50;;;;;;5078748;28;20027;-76
2022/04/24 07:57:45;;;;;;;2.80;2.35;;;13.80;59.50;;;;;;5092030;28;20020;-75
2022/04/24 08:00:11;;;;;;;3.17;2.70;;;13.90;59.50;;;;;;5087068;28;20027;-75
2022/04/24 08:02:57;;;;;;;3.05;2.55;;;13.90;59.50;;;;;;5075475;28;20056;-76
2022/04/24 08:05:27;;;;;;;3.10;2.67;;;13.90;59.60;;;;;;5089068;28;20451;-76
2022/04/24 08:07:54;;;;;;;3.33;2.65;;;13.90;59.50;;;;;;5103880;28;20028;-75
2022/04/24 08:10:22;;;;;;;3.67;2.90;;;13.90;59.50;;;;;;5084040;28;20035;-75
2022/04/24 08:12:48;;;;;;;3.95;2.83;;;13.90;59.50;;;;;;5090931;28;20108;-75
2022/04/24 08:15:14;;;;;;;4.18;3.15;;;14.00;59.50;;;;;;5100893;28;20110;-76
2022/04/24 08:17:40;;;;;;;3.70;2.80;;;14.00;59.50;;;;;;5089154;28;20111;-76
2022/04/24 08:20:07;;;;;;;3.17;2.60;;;14.10;59.50;;;;;;5062441;28;20138;-76
2022/04/24 08:22:40;;;;;;;3.63;2.72;;;14.10;59.50;;;;;;5095141;28;20031;-76
2022/04/24 08:25:07;;;;;;;4.95;3.28;;;14.20;59.60;;;;;;5071294;28;20043;-75
2022/04/24 08:27:34;;;;;;;3.85;2.70;;;14.20;59.50;;;;;;5071413;28;20103;-76
2022/04/24 08:30:00;;;;;;;4.05;2.97;;;14.20;59.50;;;;;;5086302;28;20040;-76
2022/04/24 08:32:26;;;;;;;4.10;3.03;;;14.30;59.50;;;;;;5099504;28;20050;-76
2022/04/24 08:34:52;;;;;;;3.47;2.75;;;14.40;59.50;;;;;;5088836;28;20580;-76
2022/04/24 08:37:18;;;;;;;4.13;3.10;;;14.40;59.40;;;;;;5072039;28;20107;-78
2022/04/24 08:39:43;;;;;;;4.28;3.05;;;14.40;59.30;;;;;;5053548;28;20081;-77
2022/04/24 08:42:09;;;;;;;5.05;3.10;;;14.50;59.30;;;;;;5067545;28;20039;-75
2022/04/24 08:44:36;;;;;;;4.03;2.90;;;14.60;59.30;;;;;;5080741;28;20028;-75
2022/04/24 08:47:03;;;;;;;4.32;3.10;;;14.60;59.30;;;;;;5085639;28;20115;-76
2022/04/24 08:49:32;;;;;;;3.50;2.85;;;14.70;59.30;;;;;;5096039;28;20066;-75
2022/04/24 08:52:02;;;;;;;4.07;3.00;;;14.80;59.30;;;;;;5077407;28;20040;-76
2022/04/24 08:54:28;;;;;;;3.92;2.97;;;14.90;59.30;;;;;;5094344;28;20115;-77
2022/04/24 08:56:59;;;;;;;4.50;3.42;;;15.00;59.20;;;;;;5084997;28;20683;-76
2022/04/24 08:59:24;;;;;;;3.80;2.95;;;15.00;59.20;;;;;;5099273;28;20020;-77
2022/04/24 09:01:51;;;;;;;4.30;3.22;;;15.00;59.10;;;;;;5088751;28;20028;-75
2022/04/24 09:04:21;;;;;;;4.57;3.15;;;15.10;59.10;;;;;;5089115;28;20396;-75
2022/04/24 09:06:56;;;;;;;4.35;3.08;;;15.20;59.10;;;;;;5080460;28;20583;-76
2022/04/24 09:09:23;;;;;;;3.72;2.92;;;15.30;59.10;;;;;;5066385;28;20474;-77
2022/04/24 09:11:49;;;;;;;4.68;2.95;;;15.40;59.00;;;;;;5052468;28;20032;-75
2022/04/24 09:14:14;;;;;;;3.83;2.75;;;15.40;58.90;;;;;;5077497;28;20023;-77
2022/04/24 09:16:47;;;;;;;4.53;3.13;;;15.50;58.90;;;;;;5084911;28;20020;-76
2022/04/24 09:19:20;;;;;;;4.20;3.28;;;15.60;58.90;;;;;;5089189;28;20052;-76
2022/04/24 09:21:47;;;;;;;3.80;2.78;;;15.70;58.90;;;;;;5070037;28;20384;-75
2022/04/24 09:24:14;;;;;;;4.15;3.10;;;15.70;58.80;;;;;;5098590;28;20032;-77
2022/04/24 09:27:10;;;;;;;3.88;2.95;;;15.80;58.80;;;;;;5069248;28;20032;-75
2022/04/24 09:29:38;;;;;;;3.65;2.90;;;15.90;58.90;;;;;;5058402;28;20319;-76
2022/04/24 09:32:13;;;;;;;3.30;2.70;;;16.00;58.80;;;;;;5073106;28;20059;-76
2022/04/24 09:34:40;;;;;;;3.40;2.83;;;16.10;58.80;;;;;;5067714;28;20101;-76
2022/04/24 09:37:10;;;;;;;4.85;2.80;;;16.20;58.80;;;;;;5058929;28;20420;-75
2022/04/24 09:39:38;;;;;;;3.65;2.70;;;16.30;58.80;;;;;;5081628;28;21650;-75
2022/04/24 09:42:14;;;;;;;3.78;3.05;;;16.40;58.90;;;;;;5077383;28;20032;-77
2022/04/24 09:44:47;;;;;;;3.70;2.80;;;16.50;58.80;;;;;;5094456;28;20082;-75
2022/04/24 09:47:16;;;;;;;3.90;3.10;;;16.60;58.70;;;;;;5077022;28;20501;-76
2022/04/24 09:49:45;;;;;;;3.55;2.70;;;16.70;58.70;;;;;;5090926;28;20376;-77
2022/04/24 09:52:15;;;;;;;3.42;2.88;;;16.80;58.70;;;;;;5095599;28;20028;-76
2022/04/24 09:54:46;;;;;;;4.32;2.97;;;16.90;58.60;;;;;;5097173;28;20024;-75
2022/04/24 09:57:13;;;;;;;3.40;2.72;;;17.00;58.50;;;;;;5097940;28;20024;-74
2022/04/24 09:59:43;;;;;;;4.20;3.20;;;17.10;58.60;;;;;;5076842;28;20024;-76
2022/04/24 10:02:11;;;;;;;3.72;3.00;;;17.20;58.60;;;;;;5096535;28;20039;-75
2022/04/24 10:04:38;;;;;;;3.70;3.00;;;17.20;58.40;;;;;;5063261;28;20023;-75
2022/04/24 10:07:12;;;;;;;4.57;3.00;;;17.30;58.40;;;;;;5102360;28;20083;-75
2022/04/24 10:09:48;;;;;;;4.18;3.08;;;17.40;59.00;;;;;;5096647;28;20034;-75
2022/04/24 10:12:16;;;;;;;3.67;2.88;;;17.50;58.20;;;;;;5103146;28;20067;-75
2022/04/24 10:15:02;;;;;;;3.70;2.90;;;17.70;58.20;;;;;;5086182;28;20043;-75
2022/04/24 10:17:56;;;;;;;4.05;2.95;;;17.70;58.40;;;;;;5093557;28;20516;-76
2022/04/24 10:20:47;;;;;;;4.05;3.05;;;17.80;58.30;;;;;;5100915;28;20040;-76
2022/04/24 10:23:12;;;;;;;3.55;2.85;;;17.90;58.20;;;;;;5099748;28;20071;-75
2022/04/24 10:25:39;;;;;;;4.65;3.00;;;18.00;58.10;;;;;;5082709;28;20051;-75
2022/04/24 10:28:16;;;;;;;3.63;2.90;;;18.10;58.10;;;;;;5101109;28;20445;-76
2022/04/24 10:30:44;;;;;;;3.78;2.83;;;18.20;58.10;;;;;;5088979;28;20021;-75
2022/04/24 10:33:13;;;;;;;3.35;2.65;;;18.30;58.00;;;;;;5077818;28;20028;-76
2022/04/24 10:36:05;;;;;;;3.92;2.90;;;18.40;58.00;;;;;;5097822;27;20035;-74
2022/04/24 10:38:33;;;;;;;3.72;2.88;;;18.50;58.10;;;;;;5115258;27;20031;-74
2022/04/24 10:41:13;;;;;;;3.88;2.95;;;18.60;57.80;;;;;;5078706;28;20025;-74
2022/04/24 10:43:45;;;;;;;3.63;2.80;;;18.70;57.90;;;;;;5098905;28;20044;-75
2022/04/24 10:46:16;;;;;;;3.92;2.92;;;18.80;57.80;;;;;;5086634;28;20071;-74
2022/04/24 10:48:42;;;;;;;3.60;2.75;;;18.90;57.90;;;;;;5093049;28;20032;-75
2022/04/24 10:51:08;;;;;;;3.55;2.70;;;18.90;57.80;;;;;;5102773;28;20093;-74
2022/04/24 10:53:58;;;;;;;3.72;2.72;;;19.00;57.80;;;;;;5068610;28;20032;-75
2022/04/24 10:56:29;;;;;;;2.85;2.50;;;19.10;57.90;;;;;;5096471;28;20114;-75
2022/04/24 10:59:13;;;;;;;3.17;2.60;;;19.30;57.80;;;;;;5102108;28;20055;-74
2022/04/24 11:01:43;;;;;;;3.00;2.40;;;19.30;57.80;;;;;;5102521;28;20126;-75
2022/04/24 11:04:11;;;;;;;3.28;2.58;;;19.40;57.70;;;;;;5091242;28;20384;-75
2022/04/24 11:06:38;;;;;;;3.15;2.60;;;19.50;57.70;;;;;;5090847;28;20013;-75
2022/04/24 11:09:12;;;;;;;3.85;3.00;;;19.60;57.80;;;;;;5098171;28;20027;-76
2022/04/24 11:12:07;;;;;;;3.10;2.65;;;19.70;57.70;;;;;;5075107;28;20539;-76
2022/04/24 11:14:34;;;;;;;3.60;2.63;;;19.70;57.80;;;;;;5092323;28;20044;-76
2022/04/24 11:17:05;;;;;;;3.22;2.60;;;19.80;57.50;;;;;;5081888;28;20023;-75
2022/04/24 11:19:39;;;;;;;3.05;2.50;;;19.90;57.50;;;;;;5097610;28;20383;-76
2022/04/24 11:22:10;;;;;;;3.00;2.35;;;20.00;57.50;;;;;;5098995;28;20051;-75
2022/04/24 11:24:38;;;;;;;2.97;2.38;;;20.10;57.50;;;;;;5103192;28;20392;-75
2022/04/24 11:27:07;;;;;;;3.53;2.70;;;20.20;57.40;;;;;;5085263;28;20549;-74
2022/04/24 11:29:33;;;;;;;2.90;2.17;;;20.30;57.50;;;;;;5094681;28;20024;-75
2022/04/24 11:32:00;;;;;;;2.72;2.40;;;20.30;57.40;;;;;;5078661;28;20097;-74
2022/04/24 11:34:26;;;;;;;3.28;2.60;;;20.40;57.50;;;;;;5081283;28;20036;-77
2022/04/24 11:36:57;;;;;;;3.53;2.40;;;20.40;57.50;;;;;;5084847;28;20424;-75
2022/04/24 11:39:23;;;;;;;3.50;2.47;;;20.50;57.50;;;;;;5091971;28;20119;-74
2022/04/24 11:41:52;;;;;;;3.55;2.80;;;20.60;57.50;;;;;;5101795;28;20114;-72
2022/04/24 11:50:13;;;;;;;3.15;2.60;;;20.80;57.50;;;;;;5090869;28;20081;-74
2022/04/24 11:52:42;;;;;;;2.58;2.28;;;20.90;57.60;;;;;;5081050;28;20073;-74
2022/04/24 11:55:09;;;;;;;3.35;2.35;;;21.00;57.70;;;;;;5102676;28;20030;-74
2022/04/24 11:57:34;;;;;;;4.43;2.70;;;21.00;57.60;;;;;;5067743;28;20470;-76
2022/04/24 12:00:03;;;;;;;3.40;2.47;;;21.10;57.50;;;;;;5052046;28;20114;-75
2022/04/24 12:02:33;;;;;;;3.78;2.22;;;21.10;57.50;;;;;;5097878;28;20047;-75
2022/04/24 12:04:59;;;;;;;2.70;2.25;;;21.20;57.40;;;;;;5099782;28;20032;-74
2022/04/24 12:07:31;;;;;;;2.45;2.20;;;21.20;57.40;;;;;;5079091;28;20016;-76
2022/04/24 12:10:02;;;;;;;2.97;2.25;;;21.30;57.30;;;;;;5078341;28;20028;-75
2022/04/24 12:12:28;;;;;;;3.25;2.63;;;21.30;57.20;;;;;;5097228;28;20465;-77
2022/04/24 12:14:55;;;;;;;2.47;2.20;;;21.40;57.20;;;;;;5081325;28;20032;-76
2022/04/24 12:17:23;;;;;;;3.05;2.38;;;21.40;57.10;;;;;;5101404;28;20492;-74
2022/04/24 12:19:54;;;;;;;3.15;2.40;;;21.40;57.00;;;;;;5099979;28;20024;-75
2022/04/24 12:22:36;;;;;;;2.53;2.05;;;21.50;57.00;;;;;;5085817;28;20068;-77
2022/04/24 12:25:07;;;;;;;3.03;2.38;;;21.60;57.00;;;;;;5069014;28;20028;-76
2022/04/24 12:27:33;;;;;;;2.50;2.10;;;21.60;56.90;;;;;;5069877;28;20020;-76
2022/04/24 12:30:02;;;;;;;3.22;2.40;;;21.70;56.90;;;;;;5082298;28;20040;-74
2022/04/24 12:32:28;;;;;;;2.55;2.25;;;21.70;56.80;;;;;;5065538;28;20085;-74
2022/04/24 12:34:53;;;;;;;3.08;2.38;;;21.70;56.60;;;;;;5076493;28;20028;-76
2022/04/24 12:37:31;;;;;;;3.40;2.53;;;21.80;56.60;;;;;;5086422;28;20105;-76
2022/04/24 12:39:57;;;;;;;2.85;2.20;;;21.80;56.50;;;;;;5076617;28;20082;-74
2022/04/24 12:42:24;;;;;;;2.50;2.13;;;21.90;56.50;;;;;;5083039;28;20484;-75
2022/04/24 12:44:51;;;;;;;2.75;2.17;;;21.90;56.40;;;;;;5081084;28;20089;-76
2022/04/24 12:47:18;;;;;;;2.85;2.33;;;21.90;56.30;;;;;;5087731;28;20026;-75
2022/04/24 12:49:44;;;;;;;3.42;2.13;;;22.00;56.40;;;;;;5079108;28;20171;-75
2022/04/24 12:52:11;;;;;;;3.10;2.28;;;22.10;56.40;;;;;;5093831;28;20059;-75
2022/04/24 12:54:37;;;;;;;2.42;2.00;;;22.10;56.30;;;;;;5091361;28;20028;-76
2022/04/24 12:57:08;;;;;;;3.38;2.30;;;22.10;56.20;;;;;;5078044;28;20040;-76